Time,TemperatureF,DewpointF,PressureIn,WindDirection,WindDirectionDegrees,WindSpeedMPH,WindSpeedGustMPH,Humidity,HourlyPrecipIn,Conditions,Clouds,dailyrainin,SoftwareType,DateUTC
2013-07-31 00:02:00,53.6,42.9,30.10,ENE,67,0.0,-999.0,67,-99.99,,,0.00,Acu-Link.com,2013-07-31 07:02:00,
2013-07-31 00:17:00,53.6,43.3,30.10,ENE,67,0.0,-999.0,68,-99.99,,,0.00,Acu-Link.com,2013-07-31 07:17:00,
2013-07-31 00:32:00,53.6,44.8,30.10,East,90,0.0,-999.0,72,-99.99,,,0.00,Acu-Link.com,2013-07-31 07:32:00,
2013-07-31 00:47:00,51.8,43.1,30.10,East,90,0.0,-999.0,72,-99.99,,,0.00,Acu-Link.com,2013-07-31 07:47:00,
2013-07-31 01:02:00,51.8,43.4,30.10,East,90,0.0,-999.0,73,-99.99,,,0.00,Acu-Link.com,2013-07-31 08:02:00,
2013-07-31 01:18:00,51.8,44.5,30.11,East,90,0.0,-999.0,76,-99.99,,,0.00,Acu-Link.com,2013-07-31 08:18:00,
2013-07-31 01:33:00,51.8,45.5,30.12,ESE,112,0.0,-999.0,79,-99.99,,,0.00,Acu-Link.com,2013-07-31 08:33:00,
2013-07-31 01:48:00,50.0,43.7,30.12,ESE,112,0.0,-999.0,79,-99.99,,,0.00,Acu-Link.com,2013-07-31 08:48:00,
2013-07-31 02:03:00,50.0,45.0,30.12,ESE,112,0.0,-999.0,83,-99.99,,,0.00,Acu-Link.com,2013-07-31 09:03:00,
2013-07-31 02:19:00,50.0,44.7,30.12,ESE,112,0.0,-999.0,82,-99.99,,,0.00,Acu-Link.com,2013-07-31 09:19:00,
2013-07-31 02:34:00,50.0,44.7,30.12,ESE,112,0.0,-999.0,82,-99.99,,,0.00,Acu-Link.com,2013-07-31 09:34:00,
2013-07-31 02:49:00,48.2,43.9,30.12,ESE,112,0.0,-999.0,85,-99.99,,,0.00,Acu-Link.com,2013-07-31 09:49:00,
2013-07-31 03:04:00,48.2,43.6,30.12,ESE,112,0.0,-999.0,84,-99.99,,,0.00,Acu-Link.com,2013-07-31 10:04:00,
2013-07-31 03:19:00,46.4,41.8,30.12,ESE,112,0.0,-999.0,84,-99.99,,,0.00,Acu-Link.com,2013-07-31 10:19:00,
2013-07-31 03:35:00,46.4,42.4,30.12,ESE,112,0.0,-999.0,86,-99.99,,,0.00,Acu-Link.com,2013-07-31 10:35:00,
2013-07-31 03:50:00,46.4,42.7,30.12,ESE,112,0.0,-999.0,87,-99.99,,,0.00,Acu-Link.com,2013-07-31 10:50:00,
2013-07-31 04:05:00,46.4,43.0,30.12,ESE,112,0.0,-999.0,88,-99.99,,,0.00,Acu-Link.com,2013-07-31 11:05:00,
2013-07-31 04:21:00,46.4,43.3,30.12,ESE,112,0.0,-999.0,89,-99.99,,,0.00,Acu-Link.com,2013-07-31 11:21:00,
2013-07-31 04:51:00,46.4,43.3,30.12,ESE,112,0.0,-999.0,89,-99.99,,,0.00,Acu-Link.com,2013-07-31 11:51:00,
2013-07-31 05:06:00,46.4,43.3,30.13,ESE,112,0.0,-999.0,89,-99.99,,,0.00,Acu-Link.com,2013-07-31 12:06:00,
2013-07-31 05:22:00,44.6,41.6,30.13,SE,135,0.0,-999.0,89,-99.99,,,0.00,Acu-Link.com,2013-07-31 12:22:00,
2013-07-31 05:37:00,44.6,41.6,30.13,SE,135,0.0,-999.0,89,-99.99,,,0.00,Acu-Link.com,2013-07-31 12:37:00,
2013-07-31 05:52:00,44.6,41.9,30.13,SE,135,0.0,-999.0,90,-99.99,,,0.00,Acu-Link.com,2013-07-31 12:52:00,
2013-07-31 06:07:00,44.6,41.9,30.13,SSE,157,0.0,-999.0,90,-99.99,,,0.00,Acu-Link.com,2013-07-31 13:07:00,
2013-07-31 06:22:00,44.6,41.9,30.13,SSE,157,0.0,-999.0,90,-99.99,,,0.00,Acu-Link.com,2013-07-31 13:22:00,
2013-07-31 06:37:00,44.6,44.1,30.13,SSE,157,0.0,-999.0,98,-99.99,,,0.00,Acu-Link.com,2013-07-31 13:37:00,
2013-07-31 06:53:00,44.6,44.1,30.13,SSE,157,0.0,-999.0,98,-99.99,,,0.00,Acu-Link.com,2013-07-31 13:53:00,
2013-07-31 07:08:00,44.6,44.1,30.13,SSE,157,0.0,-999.0,98,-99.99,,,0.00,Acu-Link.com,2013-07-31 14:08:00,
2013-07-31 07:23:00,46.4,45.9,30.13,SSE,157,0.0,-999.0,98,-99.99,,,0.00,Acu-Link.com,2013-07-31 14:23:00,
2013-07-31 07:38:00,50.0,46.9,30.14,SSW,202,0.0,-999.0,89,-99.99,,,0.00,Acu-Link.com,2013-07-31 14:38:00,
2013-07-31 07:53:00,50.0,46.0,30.14,South,180,0.0,-999.0,86,-99.99,,,0.00,Acu-Link.com,2013-07-31 14:53:00,
2013-07-31 08:09:00,51.8,48.1,30.14,West,270,0.0,-999.0,87,-99.99,,,0.00,Acu-Link.com,2013-07-31 15:09:00,
2013-07-31 08:24:00,53.6,47.9,30.14,WSW,247,1.6,-999.0,81,-99.99,,,0.00,Acu-Link.com,2013-07-31 15:24:00,
2013-07-31 08:39:00,55.4,45.8,30.13,WNW,292,3.1,-999.0,70,-99.99,,,0.00,Acu-Link.com,2013-07-31 15:39:00,
2013-07-31 08:54:00,59.0,47.7,30.13,North,0,0.0,-999.0,66,-99.99,,,0.00,Acu-Link.com,2013-07-31 15:54:00,
2013-07-31 09:09:00,60.8,48.5,30.13,NW,315,3.6,-999.0,64,-99.99,,,0.00,Acu-Link.com,2013-07-31 16:09:00,
2013-07-31 09:24:00,62.6,48.5,30.13,NNE,22,1.6,-999.0,60,-99.99,,,0.00,Acu-Link.com,2013-07-31 16:24:00,
2013-07-31 09:40:00,64.4,48.4,30.13,NW,315,3.1,-999.0,56,-99.99,,,0.00,Acu-Link.com,2013-07-31 16:40:00,
2013-07-31 09:55:00,68.0,49.2,30.13,NE,45,1.1,-999.0,51,-99.99,,,0.00,Acu-Link.com,2013-07-31 16:55:00,
2013-07-31 10:10:00,69.8,49.2,30.13,SE,135,0.0,-999.0,48,-99.99,,,0.00,Acu-Link.com,2013-07-31 17:10:00,
2013-07-31 10:26:00,69.8,48.7,30.12,NNW,337,3.1,-999.0,47,-99.99,,,0.00,Acu-Link.com,2013-07-31 17:26:00,
2013-07-31 10:41:00,73.4,48.9,30.12,NNW,337,0.0,-999.0,42,-99.99,,,0.00,Acu-Link.com,2013-07-31 17:41:00,
2013-07-31 10:56:00,73.4,46.9,30.12,NE,45,3.1,-999.0,39,-99.99,,,0.00,Acu-Link.com,2013-07-31 17:56:00,
2013-07-31 11:11:00,77.0,48.7,30.11,SSE,157,1.1,-999.0,37,-99.99,,,0.00,Acu-Link.com,2013-07-31 18:11:00,
2013-07-31 11:26:00,78.8,49.6,30.11,ESE,112,1.6,-999.0,36,-99.99,,,0.00,Acu-Link.com,2013-07-31 18:26:00,
2013-07-31 11:42:00,78.8,49.6,30.11,SE,135,1.1,-999.0,36,-99.99,,,0.00,Acu-Link.com,2013-07-31 18:42:00,
2013-07-31 11:57:00,80.6,48.8,30.11,NNW,337,2.7,-999.0,33,-99.99,,,0.00,Acu-Link.com,2013-07-31 18:57:00,
2013-07-31 12:12:00,78.8,45.6,30.10,West,270,1.1,-999.0,31,-99.99,,,0.00,Acu-Link.com,2013-07-31 19:12:00,
2013-07-31 12:42:00,80.6,44.5,30.09,NNW,337,2.0,-999.0,28,-99.99,,,0.00,Acu-Link.com,2013-07-31 19:42:00,
2013-07-31 12:57:00,82.4,45.0,30.08,WNW,292,4.7,-999.0,27,-99.99,,,0.00,Acu-Link.com,2013-07-31 19:57:00,
2013-07-31 13:12:00,82.4,44.0,30.08,NNW,337,3.6,-999.0,26,-99.99,,,0.00,Acu-Link.com,2013-07-31 20:12:00,
2013-07-31 13:27:00,82.4,44.0,30.08,NNE,22,3.1,-999.0,26,-99.99,,,0.00,Acu-Link.com,2013-07-31 20:27:00,
2013-07-31 13:42:00,82.4,45.0,30.07,West,270,2.7,-999.0,27,-99.99,,,0.00,Acu-Link.com,2013-07-31 20:42:00,
2013-07-31 13:58:00,84.2,44.5,30.06,SW,225,3.6,-999.0,25,-99.99,,,0.00,Acu-Link.com,2013-07-31 20:58:00,
2013-07-31 14:13:00,86.0,46.1,30.06,NE,45,3.1,-999.0,25,-99.99,,,0.00,Acu-Link.com,2013-07-31 21:13:00,
2013-07-31 14:28:00,86.0,45.0,30.05,NNE,22,2.0,-999.0,24,-99.99,,,0.00,Acu-Link.com,2013-07-31 21:28:00,
2013-07-31 14:43:00,86.0,45.0,30.04,NE,45,3.6,-999.0,24,-99.99,,,0.00,Acu-Link.com,2013-07-31 21:43:00,
2013-07-31 14:58:00,86.0,45.0,30.04,WNW,292,1.1,-999.0,24,-99.99,,,0.00,Acu-Link.com,2013-07-31 21:58:00,
2013-07-31 15:14:00,86.0,45.0,30.03,NW,315,2.7,-999.0,24,-99.99,,,0.00,Acu-Link.com,2013-07-31 22:14:00,
2013-07-31 15:29:00,86.0,42.7,30.03,NE,45,0.0,-999.0,22,-99.99,,,0.00,Acu-Link.com,2013-07-31 22:29:00,
2013-07-31 15:44:00,80.6,40.5,30.02,WNW,292,0.0,-999.0,24,-99.99,,,0.00,Acu-Link.com,2013-07-31 22:44:00,
2013-07-31 15:59:00,82.4,42.0,30.02,SSW,202,1.6,-999.0,24,-99.99,,,0.00,Acu-Link.com,2013-07-31 22:59:00,
2013-07-31 16:14:00,82.4,43.0,30.02,SSW,202,3.1,-999.0,25,-99.99,,,0.00,Acu-Link.com,2013-07-31 23:14:00,
2013-07-31 16:29:00,82.4,43.0,30.01,North,0,2.7,-999.0,25,-99.99,,,0.00,Acu-Link.com,2013-07-31 23:29:00,
2013-07-31 16:45:00,84.2,41.2,30.01,SSE,157,0.0,-999.0,22,-99.99,,,0.00,Acu-Link.com,2013-07-31 23:45:00,
2013-07-31 17:00:00,86.0,38.9,30.00,NNW,337,2.0,-999.0,19,-99.99,,,0.00,Acu-Link.com,2013-08-01 00:00:00,
2013-07-31 17:15:00,86.0,40.2,30.00,NNW,337,1.1,-999.0,20,-99.99,,,0.00,Acu-Link.com,2013-08-01 00:15:00,
2013-07-31 17:30:00,82.4,38.5,29.99,West,270,3.1,-999.0,21,-99.99,,,0.00,Acu-Link.com,2013-08-01 00:30:00,
2013-07-31 17:46:00,84.2,41.2,29.98,NNE,22,2.0,-999.0,22,-99.99,,,0.00,Acu-Link.com,2013-08-01 00:46:00,
2013-07-31 18:01:00,87.8,39.0,29.98,NE,45,3.1,-999.0,18,-99.99,,,0.00,Acu-Link.com,2013-08-01 01:01:00,
2013-07-31 18:16:00,84.2,40.0,29.97,SSE,157,2.7,-999.0,21,-99.99,,,0.00,Acu-Link.com,2013-08-01 01:16:00,
2013-07-31 18:31:00,82.4,42.0,29.97,SW,225,0.0,-999.0,24,-99.99,,,0.00,Acu-Link.com,2013-08-01 01:31:00,
2013-07-31 18:47:00,80.6,42.5,29.97,NE,45,0.0,-999.0,26,-99.99,,,0.00,Acu-Link.com,2013-08-01 01:47:00,
2013-07-31 19:02:00,78.8,42.0,29.97,NE,45,1.6,-999.0,27,-99.99,,,0.00,Acu-Link.com,2013-08-01 02:02:00,
2013-07-31 19:17:00,78.8,43.8,29.96,East,90,0.0,-999.0,29,-99.99,,,0.00,Acu-Link.com,2013-08-01 02:17:00,
2013-07-31 19:32:00,77.0,43.2,29.96,North,0,0.0,-999.0,30,-99.99,,,0.00,Acu-Link.com,2013-08-01 02:32:00,
2013-07-31 19:47:00,77.0,44.9,29.96,East,90,0.0,-999.0,32,-99.99,,,0.00,Acu-Link.com,2013-08-01 02:47:00,
2013-07-31 20:03:00,73.4,43.3,29.97,ENE,67,0.0,-999.0,34,-99.99,,,0.00,Acu-Link.com,2013-08-01 03:03:00,
2013-07-31 20:18:00,73.4,44.1,29.96,NE,45,0.0,-999.0,35,-99.99,,,0.00,Acu-Link.com,2013-08-01 03:18:00,
2013-07-31 20:33:00,71.6,43.2,29.96,NNE,22,0.0,-999.0,36,-99.99,,,0.00,Acu-Link.com,2013-08-01 03:33:00,
2013-07-31 20:48:00,71.6,44.6,29.97,NNE,22,0.0,-999.0,38,-99.99,,,0.00,Acu-Link.com,2013-08-01 03:48:00,
2013-07-31 21:03:00,69.8,43.7,29.97,NNE,22,0.0,-999.0,39,-99.99,,,0.00,Acu-Link.com,2013-08-01 04:03:00,
2013-07-31 21:19:00,68.0,42.8,29.97,NE,45,0.0,-999.0,40,-99.99,,,0.00,Acu-Link.com,2013-08-01 04:19:00,
2013-07-31 21:34:00,68.0,44.0,29.97,SW,225,0.0,-999.0,42,-99.99,,,0.00,Acu-Link.com,2013-08-01 04:34:00,
2013-07-31 21:49:00,66.2,44.8,29.97,East,90,0.0,-999.0,46,-99.99,,,0.00,Acu-Link.com,2013-08-01 04:49:00,
2013-07-31 22:05:00,64.4,44.3,29.96,NE,45,0.0,-999.0,48,-99.99,,,0.00,Acu-Link.com,2013-08-01 05:05:00,
2013-07-31 22:20:00,62.6,43.7,29.97,NE,45,0.0,-999.0,50,-99.99,,,0.00,Acu-Link.com,2013-08-01 05:20:00,
2013-07-31 22:35:00,62.6,43.2,29.97,NE,45,0.0,-999.0,49,-99.99,,,0.00,Acu-Link.com,2013-08-01 05:35:00,
2013-07-31 22:50:00,62.6,43.7,29.96,NE,45,0.0,-999.0,50,-99.99,,,0.00,Acu-Link.com,2013-08-01 05:50:00,
2013-07-31 23:05:00,62.6,43.7,29.96,NW,315,0.0,-999.0,50,-99.99,,,0.00,Acu-Link.com,2013-08-01 06:05:00,
2013-07-31 23:20:00,62.6,44.2,29.96,NE,45,0.0,-999.0,51,-99.99,,,0.00,Acu-Link.com,2013-08-01 06:20:00,
2013-07-31 23:36:00,60.8,42.6,29.96,ENE,67,1.6,-999.0,51,-99.99,,,0.00,Acu-Link.com,2013-08-01 06:36:00,
2013-07-31 23:51:00,60.8,42.6,29.96,ENE,67,0.0,-999.0,51,-99.99,,,0.00,Acu-Link.com,2013-08-01 06:51:00,